Brooklyn, Wisconsin
Current Conditions -  °F | °C
As of 3:35 AM on Saturday 25 Oct 2014 (Local Time) from KEFT Reporting Station
Haze Haze  
Wind Chill: 13°   Ceiling: 700
Heat Index: 13°   Visibility: 5mi
Dew Point: 13°   Wind: 15mph
Humidity: 100%   Direction: 270°W
Pressure: 29.9"   Gusts: NA
Location:  42.85°N, 89.37°W
Report Text: KEFT 250835Z AUTO 27013KT 5SM BR BKN007 13/13 A2990 RMK AO2
Loading
Personal Weather Stations






























Interactive Weather Map
Tropical Storm Tracking
New forecast layout! Learn more

10-Day Weather Forecast

Advertisements
Track Severe Weather on mobile